Terminal Aerodrome Forecast
Issued by NWS Lake Charles, LA

Home | Current Version | Previous Version | Text Only | Print | Product List | Glossary On
Versions: 1 2 3 4 5 6 7 8 9 10 11 12
000
FTUS44 KLCH 291125
TAFARA
TAF
KARA 291125Z 2912/3012 13005KT 5SM BR SKC
     FM291400 15008KT P6SM SCT250
     FM291700 19014G19KT P6SM SCT250
     FM300000 18006KT P6SM SCT250
     FM300800 18004KT 4SM BR SCT025=

USA.gov is the U.S. government's official web portal to all federal, state and local government web resources and services.